Terminal Aerodrome Forecast
Issued by NWS Brownsville, TX

Home | Current Version | Previous Version | Text Only | Print | Product List | Glossary On
Versions: 1 2 3 4 5 6 7 8 9 10 11 12 13 14
464
FTUS44 KBRO 252340
TAFBRO
TAF
KBRO 252340Z 2600/2624 14015G22KT P6SM FEW040
     FM260200 11009KT P6SM FEW035 BKN250
      TEMPO 2610/2614 5SM TSRA BKN030CB
     FM261400 07009KT P6SM -SHRA BKN050
      TEMPO 2618/2622 5SM TSRA BKN030CB=

USA.gov is the U.S. government's official web portal to all federal, state and local government web resources and services.